Terminal Aerodrome Forecast
Issued by NWS

Home | Current Version | Previous Version | Graphics & Text | Print | Product List | Glossary On
Versions: 1 2 3 4 5 6 7 8 9 10 11 12 13 14 15 16 17 18 19 20 21 22 23
250
FTUS43 KBIS 231445 AAA
TAFDIK
TAF AMD
KDIK 231445Z 2315/2412 29010KT P6SM BKN025 OVC035
     FM231600 26014G20KT P6SM FEW040
     FM231700 29020G30KT P6SM SKC
     FM240300 30009KT P6SM SKC
     FM240900 27006KT P6SM SKC=

USA.gov is the U.S. government's official web portal to all federal, state and local government web resources and services.